Time;durP1;ratioP1;P1;durP2;ratioP2;P2;SDS_P1;SDS_P2;PMS_P1;PMS_P2;Temp;Humidity;BMP_temperature;BMP_pressure;BME280_temperature;BME280_humidity;BME280_pressure;Samples;Min_cycle;Max_cycle;Signal;HPM_P1;HPM_P2
2021/09/28 00:01:54;;;;;;;17.23;11.07;;;;;;;;;;5095270;28;20454;-75
2021/09/28 00:04:21;;;;;;;15.80;11.33;;;;;;;;;;5096770;28;20526;-76
2021/09/28 00:06:50;;;;;;;18.70;11.57;;;;;;;;;;5096304;28;20446;-76
2021/09/28 00:09:17;;;;;;;18.50;11.57;;;;;;;;;;5096287;28;20496;-75
2021/09/28 00:11:49;;;;;;;15.60;11.70;;;;;;;;;;5096315;28;20443;-75
2021/09/28 00:14:17;;;;;;;18.07;12.00;;;;;;;;;;5096656;28;20554;-74
2021/09/28 00:16:44;;;;;;;18.27;14.20;;;;;;;;;;5096201;28;20439;-75
2021/09/28 00:19:11;;;;;;;21.43;13.13;;;;;;;;;;5096415;28;20604;-74
2021/09/28 00:21:39;;;;;;;15.03;12.17;;;;;;;;;;5097228;28;20534;-74
2021/09/28 00:24:08;;;;;;;22.30;13.77;;;;;;;;;;5096350;28;20528;-74
2021/09/28 00:26:35;;;;;;;20.53;13.10;;;;;;;;;;5096245;28;20522;-75
2021/09/28 00:29:02;;;;;;;20.70;14.73;;;;;;;;;;5096155;28;20478;-75
2021/09/28 00:31:30;;;;;;;25.70;13.93;;;;;;;;;;5096161;28;20447;-75
2021/09/28 00:33:57;;;;;;;20.93;12.93;;;;;;;;;;5095675;28;20506;-74
2021/09/28 00:36:24;;;;;;;21.17;14.43;;;;;;;;;;5096031;28;20805;-74
2021/09/28 00:38:51;;;;;;;15.53;13.93;;;;;;;;;;5095734;28;20483;-75
2021/09/28 00:41:20;;;;;;;20.90;14.27;;;;;;;;;;5095732;28;20995;-75
2021/09/28 00:43:48;;;;;;;24.03;14.93;;;;;;;;;;5095947;28;20454;-75
2021/09/28 00:46:16;;;;;;;18.83;13.17;;;;;;;;;;5095902;28;20484;-76
2021/09/28 00:48:43;;;;;;;22.10;13.93;;;;;;;;;;5095525;28;20926;-76
2021/09/28 00:51:11;;;;;;;22.80;16.00;;;;;;;;;;5096018;28;20441;-76
2021/09/28 00:53:39;;;;;;;17.17;15.20;;;;;;;;;;5095807;28;20464;-76
2021/09/28 00:56:07;;;;;;;22.17;14.67;;;;;;;;;;5095506;28;20442;-76
2021/09/28 00:58:36;;;;;;;20.57;16.20;;;;;;;;;;5095818;28;20534;-76
2021/09/28 01:01:04;;;;;;;18.87;15.00;;;;;;;;;;5095329;28;20443;-76
2021/09/28 01:03:32;;;;;;;19.93;15.60;;;;;;;;;;5096011;28;20484;-77
2021/09/28 01:05:59;;;;;;;24.17;16.50;;;;;;;;;;5095611;28;20941;-77
2021/09/28 01:08:33;;;;;;;20.47;16.13;;;;;;;;;;5095511;28;20933;-76
2021/09/28 01:11:00;;;;;;;20.40;15.40;;;;;;;;;;5095065;28;20971;-76
2021/09/28 01:13:29;;;;;;;21.70;15.57;;;;;;;;;;5094796;28;20450;-76
2021/09/28 01:16:10;;;;;;;20.37;16.27;;;;;;;;;;5095955;28;20780;-76
2021/09/28 01:18:40;;;;;;;27.37;17.23;;;;;;;;;;5095030;28;20469;-76
2021/09/28 01:21:10;;;;;;;21.80;15.73;;;;;;;;;;5095945;28;20431;-77
2021/09/28 01:23:37;;;;;;;22.30;15.47;;;;;;;;;;5094942;28;20447;-76
2021/09/28 01:26:05;;;;;;;21.53;15.33;;;;;;;;;;5095323;28;20439;-76
2021/09/28 01:28:32;;;;;;;24.60;17.30;;;;;;;;;;5094976;28;20826;-76
2021/09/28 01:30:59;;;;;;;26.87;17.43;;;;;;;;;;5095334;28;20438;-76
2021/09/28 01:33:26;;;;;;;26.13;17.87;;;;;;;;;;5095309;28;20440;-76
2021/09/28 01:35:54;;;;;;;28.50;17.93;;;;;;;;;;5095053;28;20566;-76
2021/09/28 01:38:22;;;;;;;27.53;17.37;;;;;;;;;;5095086;28;20530;-76
2021/09/28 01:40:50;;;;;;;20.30;15.00;;;;;;;;;;5094771;28;20450;-76
2021/09/28 01:43:19;;;;;;;26.67;17.43;;;;;;;;;;5094439;28;21007;-76
2021/09/28 01:45:47;;;;;;;28.93;19.50;;;;;;;;;;5095181;28;20497;-77
2021/09/28 01:48:15;;;;;;;22.40;17.57;;;;;;;;;;5094371;28;20489;-76
2021/09/28 01:50:42;;;;;;;22.40;16.50;;;;;;;;;;5094267;28;20561;-75
2021/09/28 01:53:09;;;;;;;23.10;17.00;;;;;;;;;;5094233;28;20964;-76
2021/09/28 01:55:38;;;;;;;24.10;16.47;;;;;;;;;;5094460;28;20834;-76
2021/09/28 01:58:05;;;;;;;24.37;17.87;;;;;;;;;;5094562;28;20452;-76
2021/09/28 02:00:32;;;;;;;28.90;17.50;;;;;;;;;;5094746;28;20865;-74
2021/09/28 02:03:00;;;;;;;25.43;16.60;;;;;;;;;;5094482;28;20439;-76
2021/09/28 02:05:27;;;;;;;21.23;17.60;;;;;;;;;;5094371;28;20454;-76
2021/09/28 02:07:55;;;;;;;23.00;16.43;;;;;;;;;;5093977;28;20527;-76
2021/09/28 02:10:22;;;;;;;27.60;15.80;;;;;;;;;;5094266;28;20534;-77
2021/09/28 02:12:51;;;;;;;26.37;15.73;;;;;;;;;;5093855;28;20440;-76
2021/09/28 02:15:18;;;;;;;18.67;15.30;;;;;;;;;;5094067;28;20475;-76
2021/09/28 02:17:45;;;;;;;30.67;16.83;;;;;;;;;;5093822;28;20943;-76
2021/09/28 02:20:13;;;;;;;19.30;15.57;;;;;;;;;;5094009;28;20489;-75
2021/09/28 02:22:40;;;;;;;21.57;14.77;;;;;;;;;;5094165;28;20465;-75
2021/09/28 02:25:08;;;;;;;23.10;16.20;;;;;;;;;;5093191;28;20509;-77
2021/09/28 02:27:35;;;;;;;18.63;14.27;;;;;;;;;;5093989;28;20446;-75
2021/09/28 02:30:04;;;;;;;23.70;15.53;;;;;;;;;;5094168;28;20968;-76
2021/09/28 02:32:31;;;;;;;24.37;15.07;;;;;;;;;;5093942;28;20530;-75
2021/09/28 02:34:59;;;;;;;18.77;14.90;;;;;;;;;;5093776;28;20497;-75
2021/09/28 02:37:26;;;;;;;21.57;15.87;;;;;;;;;;5093795;28;20811;-75
2021/09/28 02:39:53;;;;;;;18.70;13.77;;;;;;;;;;5094009;28;20449;-75
2021/09/28 02:42:21;;;;;;;24.33;15.20;;;;;;;;;;5094116;28;20442;-75
2021/09/28 02:44:51;;;;;;;30.97;15.43;;;;;;;;;;5093768;28;20964;-75
2021/09/28 02:47:20;;;;;;;18.63;13.67;;;;;;;;;;5093709;28;20544;-75
2021/09/28 02:49:47;;;;;;;22.57;14.47;;;;;;;;;;5093364;28;20443;-75
2021/09/28 02:52:14;;;;;;;21.70;14.23;;;;;;;;;;5093276;28;20466;-75
2021/09/28 02:54:41;;;;;;;22.43;14.07;;;;;;;;;;5093180;28;20475;-75
2021/09/28 02:57:08;;;;;;;17.10;12.60;;;;;;;;;;5093270;28;20444;-75
2021/09/28 02:59:35;;;;;;;17.47;11.73;;;;;;;;;;5093762;28;20917;-74
2021/09/28 03:02:03;;;;;;;17.83;12.90;;;;;;;;;;5093737;28;20436;-74
2021/09/28 03:04:32;;;;;;;17.90;12.60;;;;;;;;;;5093759;28;20443;-75
2021/09/28 03:06:59;;;;;;;16.77;12.50;;;;;;;;;;5093319;28;20452;-74
2021/09/28 03:09:26;;;;;;;23.97;11.93;;;;;;;;;;5093115;28;20454;-75
2021/09/28 03:11:54;;;;;;;21.50;11.40;;;;;;;;;;5093162;28;20444;-75
2021/09/28 03:14:22;;;;;;;16.50;11.60;;;;;;;;;;5093067;28;20495;-75
2021/09/28 03:16:49;;;;;;;27.53;14.77;;;;;;;;;;5093450;28;20435;-75
2021/09/28 03:19:17;;;;;;;20.93;12.10;;;;;;;;;;5093496;28;20476;-75
2021/09/28 03:21:45;;;;;;;22.03;12.37;;;;;;;;;;5093592;28;20436;-75
2021/09/28 03:24:13;;;;;;;24.90;13.00;;;;;;;;;;5093109;28;20526;-75
2021/09/28 03:26:40;;;;;;;19.77;12.57;;;;;;;;;;5093559;28;20811;-74
2021/09/28 03:29:08;;;;;;;16.93;12.40;;;;;;;;;;5093050;28;20560;-75
2021/09/28 03:31:35;;;;;;;17.90;11.93;;;;;;;;;;5093336;28;20531;-75
2021/09/28 03:34:02;;;;;;;21.77;13.40;;;;;;;;;;5093309;28;20439;-75
2021/09/28 03:36:30;;;;;;;25.60;13.73;;;;;;;;;;5094224;28;20994;-75
2021/09/28 03:38:59;;;;;;;23.00;12.30;;;;;;;;;;5097190;28;20436;-76
2021/09/28 03:41:26;;;;;;;21.43;12.20;;;;;;;;;;5097134;28;20454;-76
2021/09/28 03:43:53;;;;;;;25.40;12.20;;;;;;;;;;5096770;28;20449;-76
2021/09/28 03:46:20;;;;;;;21.43;13.37;;;;;;;;;;5097131;28;20818;-77
2021/09/28 03:48:47;;;;;;;21.63;12.33;;;;;;;;;;5097200;28;20442;-75
2021/09/28 03:51:15;;;;;;;20.10;12.37;;;;;;;;;;5097530;28;20439;-76
2021/09/28 03:53:43;;;;;;;21.37;13.70;;;;;;;;;;5097524;28;20470;-76
2021/09/28 03:56:11;;;;;;;22.60;13.27;;;;;;;;;;5097438;28;20474;-76
2021/09/28 03:58:38;;;;;;;22.13;14.80;;;;;;;;;;5097109;28;20443;-76
2021/09/28 04:01:05;;;;;;;21.93;12.77;;;;;;;;;;5096696;28;20448;-76
2021/09/28 04:03:33;;;;;;;19.17;13.90;;;;;;;;;;5096643;28;20446;-75
2021/09/28 04:06:00;;;;;;;21.67;13.17;;;;;;;;;;5096374;28;20450;-74
2021/09/28 04:08:27;;;;;;;22.83;13.10;;;;;;;;;;5096335;28;20446;-74
2021/09/28 04:10:54;;;;;;;21.30;13.53;;;;;;;;;;5096651;28;20540;-75
2021/09/28 04:13:23;;;;;;;23.07;14.37;;;;;;;;;;5096652;28;20450;-75
2021/09/28 04:15:52;;;;;;;23.43;14.27;;;;;;;;;;5096814;28;20467;-75
2021/09/28 04:18:19;;;;;;;23.10;13.53;;;;;;;;;;5096365;28;20535;-75
2021/09/28 04:20:46;;;;;;;19.53;13.73;;;;;;;;;;5096025;28;20443;-75
2021/09/28 04:23:15;;;;;;;26.40;13.40;;;;;;;;;;5096321;28;20444;-74
2021/09/28 04:25:42;;;;;;;26.43;14.80;;;;;;;;;;5095933;28;20817;-71
2021/09/28 04:28:10;;;;;;;21.90;13.80;;;;;;;;;;5096626;28;20777;-70
2021/09/28 04:30:38;;;;;;;20.77;13.23;;;;;;;;;;5096673;28;20522;-72
2021/09/28 04:33:05;;;;;;;17.37;13.90;;;;;;;;;;5095750;28;20956;-71
2021/09/28 04:35:32;;;;;;;22.00;13.00;;;;;;;;;;5095638;28;20472;-71
2021/09/28 04:38:00;;;;;;;24.83;14.13;;;;;;;;;;5095380;28;20800;-71
2021/09/28 04:40:27;;;;;;;22.43;13.40;;;;;;;;;;5095914;28;20443;-72
2021/09/28 04:42:54;;;;;;;32.07;13.50;;;;;;;;;;5095857;28;20446;-72
2021/09/28 04:45:22;;;;;;;25.47;12.30;;;;;;;;;;5095846;28;20453;-72
2021/09/28 04:47:50;;;;;;;24.03;14.43;;;;;;;;;;5094386;28;20952;-71
2021/09/28 04:50:17;;;;;;;25.23;12.73;;;;;;;;;;5096254;28;20466;-72
2021/09/28 04:52:44;;;;;;;26.13;14.47;;;;;;;;;;5097197;28;20438;-72
2021/09/28 04:55:12;;;;;;;20.30;13.13;;;;;;;;;;5095935;28;20482;-71
2021/09/28 04:57:39;;;;;;;22.63;14.00;;;;;;;;;;5095368;28;20943;-72
2021/09/28 05:00:07;;;;;;;26.20;13.87;;;;;;;;;;5095774;28;20461;-72
2021/09/28 05:02:34;;;;;;;23.23;14.67;;;;;;;;;;5095492;28;20514;-73
2021/09/28 05:05:02;;;;;;;21.77;14.03;;;;;;;;;;5095022;28;20455;-73
2021/09/28 05:07:29;;;;;;;21.10;13.00;;;;;;;;;;5095466;28;20443;-73
2021/09/28 05:09:57;;;;;;;17.67;13.00;;;;;;;;;;5095148;28;20483;-72
2021/09/28 05:12:24;;;;;;;30.73;13.67;;;;;;;;;;5095316;28;20482;-72
2021/09/28 05:14:51;;;;;;;24.50;14.60;;;;;;;;;;5094901;28;20435;-72
2021/09/28 05:17:18;;;;;;;24.00;14.40;;;;;;;;;;5095188;28;20466;-72
2021/09/28 05:19:45;;;;;;;20.00;12.97;;;;;;;;;;5095142;28;20448;-75
2021/09/28 05:22:14;;;;;;;22.40;12.50;;;;;;;;;;5095085;28;20447;-73
2021/09/28 05:24:41;;;;;;;24.43;13.17;;;;;;;;;;5095607;28;20434;-72
2021/09/28 05:27:08;;;;;;;22.40;13.90;;;;;;;;;;5094675;28;20450;-73
2021/09/28 05:29:36;;;;;;;18.43;11.70;;;;;;;;;;5095103;28;20574;-73
2021/09/28 05:32:03;;;;;;;28.03;14.13;;;;;;;;;;5094979;28;20442;-73
2021/09/28 05:34:30;;;;;;;25.00;13.07;;;;;;;;;;5094792;28;20519;-74
2021/09/28 05:36:57;;;;;;;19.50;12.27;;;;;;;;;;5094197;28;20888;-72
2021/09/28 05:39:26;;;;;;;20.00;11.93;;;;;;;;;;5093947;28;20202;-74
2021/09/28 05:41:53;;;;;;;23.30;12.70;;;;;;;;;;5094704;28;20471;-70
2021/09/28 05:44:20;;;;;;;19.27;12.67;;;;;;;;;;5094798;28;20440;-73
2021/09/28 05:46:47;;;;;;;26.47;14.30;;;;;;;;;;5094237;28;20439;-74
2021/09/28 05:49:14;;;;;;;19.90;13.00;;;;;;;;;;5094623;28;20853;-74
2021/09/28 05:51:47;;;;;;;22.67;13.80;;;;;;;;;;5094469;28;20435;-74
2021/09/28 05:54:18;;;;;;;16.97;11.67;;;;;;;;;;5094211;28;20432;-74
2021/09/28 05:56:46;;;;;;;17.97;11.83;;;;;;;;;;5094070;28;20584;-73
2021/09/28 05:59:13;;;;;;;21.97;12.50;;;;;;;;;;5095046;28;20439;-74
2021/09/28 06:01:41;;;;;;;26.70;12.30;;;;;;;;;;5094743;28;20446;-75
2021/09/28 06:04:08;;;;;;;20.80;11.20;;;;;;;;;;5093942;28;20450;-74
2021/09/28 06:06:35;;;;;;;19.00;12.30;;;;;;;;;;5094600;28;20439;-74
2021/09/28 06:09:02;;;;;;;21.20;13.47;;;;;;;;;;5093938;28;20442;-73
2021/09/28 06:11:29;;;;;;;28.53;12.10;;;;;;;;;;5093903;28;20439;-73
2021/09/28 06:13:58;;;;;;;22.97;10.87;;;;;;;;;;5093982;28;20512;-74
2021/09/28 06:16:25;;;;;;;19.57;12.20;;;;;;;;;;5094053;28;20472;-72
2021/09/28 06:18:53;;;;;;;28.87;12.30;;;;;;;;;;5093837;28;20454;-73
2021/09/28 06:21:20;;;;;;;25.17;11.43;;;;;;;;;;5094215;28;20440;-74
2021/09/28 06:23:47;;;;;;;26.80;11.70;;;;;;;;;;5093697;28;20441;-74
2021/09/28 06:26:14;;;;;;;22.70;11.70;;;;;;;;;;5093664;28;20452;-74
2021/09/28 06:28:41;;;;;;;25.63;11.13;;;;;;;;;;5093720;28;20940;-74
2021/09/28 06:31:10;;;;;;;23.73;12.53;;;;;;;;;;5093520;28;20443;-74
2021/09/28 06:33:37;;;;;;;18.10;11.73;;;;;;;;;;5093495;28;20443;-74
2021/09/28 06:36:05;;;;;;;19.20;10.60;;;;;;;;;;5094105;28;20475;-74
2021/09/28 06:38:32;;;;;;;22.53;10.40;;;;;;;;;;5094036;28;20435;-74
2021/09/28 06:40:59;;;;;;;26.10;11.10;;;;;;;;;;5093787;28;20451;-74
2021/09/28 06:43:26;;;;;;;15.10;9.30;;;;;;;;;;5094151;28;20442;-74
2021/09/28 06:45:53;;;;;;;22.90;10.03;;;;;;;;;;5093653;28;20454;-74
2021/09/28 06:48:22;;;;;;;17.83;10.07;;;;;;;;;;5093830;28;20435;-74
2021/09/28 06:50:49;;;;;;;20.17;9.90;;;;;;;;;;5093297;28;20507;-74
2021/09/28 06:53:16;;;;;;;19.13;9.60;;;;;;;;;;5093328;28;20928;-74
2021/09/28 06:55:44;;;;;;;17.13;9.10;;;;;;;;;;5093337;28;20479;-75
2021/09/28 06:58:11;;;;;;;18.37;9.60;;;;;;;;;;5094013;28;20442;-74
2021/09/28 07:00:38;;;;;;;18.37;8.60;;;;;;;;;;5093485;28;20435;-73
2021/09/28 07:03:05;;;;;;;13.90;8.70;;;;;;;;;;5093544;28;20539;-74
2021/09/28 07:05:34;;;;;;;14.53;8.57;;;;;;;;;;5093545;28;20475;-74
2021/09/28 07:08:01;;;;;;;15.60;9.40;;;;;;;;;;5093413;28;20526;-74
2021/09/28 07:10:29;;;;;;;15.50;8.93;;;;;;;;;;5093354;28;20439;-74
2021/09/28 07:12:56;;;;;;;15.90;8.50;;;;;;;;;;5097563;28;20441;-73
2021/09/28 07:15:23;;;;;;;23.17;7.87;;;;;;;;;;5098076;28;20447;-74
2021/09/28 07:17:51;;;;;;;25.77;9.43;;;;;;;;;;5098722;28;20487;-75
2021/09/28 07:20:18;;;;;;;18.17;8.30;;;;;;;;;;5097624;28;20513;-73
2021/09/28 07:22:46;;;;;;;23.73;8.70;;;;;;;;;;5097402;28;20450;-74
2021/09/28 07:25:13;;;;;;;14.77;7.70;;;;;;;;;;5097472;28;20477;-74
2021/09/28 07:27:41;;;;;;;17.10;8.80;;;;;;;;;;5097333;28;20439;-73
2021/09/28 07:30:08;;;;;;;28.37;7.77;;;;;;;;;;5097672;28;20798;-74
2021/09/28 07:32:37;;;;;;;12.17;7.40;;;;;;;;;;5097352;28;20431;-74
2021/09/28 07:35:05;;;;;;;14.87;7.60;;;;;;;;;;5097153;28;20454;-74
2021/09/28 07:37:32;;;;;;;19.33;9.23;;;;;;;;;;5097163;28;20475;-74
2021/09/28 07:40:01;;;;;;;22.23;6.63;;;;;;;;;;5096764;28;20444;-75
2021/09/28 07:42:28;;;;;;;14.00;7.03;;;;;;;;;;5097280;28;20436;-74
2021/09/28 07:44:56;;;;;;;15.73;6.70;;;;;;;;;;5096947;28;20452;-74
2021/09/28 07:47:23;;;;;;;12.17;7.30;;;;;;;;;;5096600;28;21017;-74
2021/09/28 07:49:51;;;;;;;11.67;6.63;;;;;;;;;;5096910;28;20439;-74
2021/09/28 07:52:18;;;;;;;19.27;7.93;;;;;;;;;;5096547;28;20450;-74
2021/09/28 07:54:45;;;;;;;14.77;7.10;;;;;;;;;;5096858;28;20787;-74
2021/09/28 07:57:13;;;;;;;21.80;6.90;;;;;;;;;;5097370;28;20482;-74
2021/09/28 07:59:41;;;;;;;20.33;6.30;;;;;;;;;;5097171;28;20518;-74
2021/09/28 08:02:08;;;;;;;14.00;6.27;;;;;;;;;;5096437;28;20457;-75
2021/09/28 08:04:37;;;;;;;14.30;5.60;;;;;;;;;;5096706;28;20435;-74
2021/09/28 08:07:07;;;;;;;11.30;6.07;;;;;;;;;;5096119;28;20452;-74
2021/09/28 08:09:34;;;;;;;22.27;7.00;;;;;;;;;;5096184;28;20432;-75
2021/09/28 08:12:02;;;;;;;14.70;6.13;;;;;;;;;;5096536;28;20518;-74
2021/09/28 08:14:30;;;;;;;12.43;6.07;;;;;;;;;;5096354;28;20528;-75
2021/09/28 08:16:57;;;;;;;25.43;6.90;;;;;;;;;;5096246;28;20476;-74
2021/09/28 08:19:25;;;;;;;20.07;6.40;;;;;;;;;;5095852;28;20436;-74
2021/09/28 08:21:52;;;;;;;10.30;5.43;;;;;;;;;;5095839;28;20442;-74
2021/09/28 08:24:19;;;;;;;17.37;6.20;;;;;;;;;;5096644;28;20536;-75
2021/09/28 08:29:33;;;;;;;9.70;5.57;;;;;;;;;;5096198;28;20466;-75
2021/09/28 08:32:01;;;;;;;14.10;5.03;;;;;;;;;;5096252;28;20899;-75
2021/09/28 08:34:28;;;;;;;19.10;5.53;;;;;;;;;;5095838;28;20440;-74
2021/09/28 08:36:55;;;;;;;12.97;5.60;;;;;;;;;;5096021;28;20485;-74
2021/09/28 08:39:22;;;;;;;20.43;5.17;;;;;;;;;;5096005;28;20449;-74
2021/09/28 08:41:51;;;;;;;15.70;6.30;;;;;;;;;;5095869;28;20482;-75
2021/09/28 08:44:19;;;;;;;13.80;5.47;;;;;;;;;;5096459;28;20496;-75
2021/09/28 08:46:49;;;;;;;16.20;6.00;;;;;;;;;;5095590;28;20449;-75
2021/09/28 08:49:18;;;;;;;15.40;5.97;;;;;;;;;;5096185;28;20431;-75
2021/09/28 08:51:45;;;;;;;11.77;5.10;;;;;;;;;;5095554;28;20436;-74
2021/09/28 08:54:13;;;;;;;16.03;5.73;;;;;;;;;;5095798;28;20440;-75
2021/09/28 08:56:40;;;;;;;14.60;5.67;;;;;;;;;;5095711;28;20809;-75
2021/09/28 08:59:10;;;;;;;9.27;6.27;;;;;;;;;;5095551;28;20538;-75
2021/09/28 09:01:38;;;;;;;13.07;6.67;;;;;;;;;;5096124;28;20948;-75
2021/09/28 09:04:15;;;;;;;11.23;5.50;;;;;;;;;;5095913;28;20523;-75
2021/09/28 09:06:44;;;;;;;14.93;5.77;;;;;;;;;;5095898;28;20424;-75
2021/09/28 09:09:12;;;;;;;12.30;5.63;;;;;;;;;;5095493;28;20472;-75
2021/09/28 09:11:40;;;;;;;12.60;5.17;;;;;;;;;;5095389;28;20452;-75
2021/09/28 09:14:15;;;;;;;12.57;5.13;;;;;;;;;;5095419;28;20469;-75
2021/09/28 09:16:43;;;;;;;17.47;6.00;;;;;;;;;;5094944;28;20475;-76
2021/09/28 09:19:12;;;;;;;16.07;4.67;;;;;;;;;;5095586;28;20441;-79
2021/09/28 09:21:45;;;;;;;11.60;5.93;;;;;;;;;;5095284;28;20447;-76
2021/09/28 09:24:12;;;;;;;9.73;5.53;;;;;;;;;;5095950;28;20438;-76
2021/09/28 09:26:45;;;;;;;9.63;6.30;;;;;;;;;;5094806;28;20964;-76
2021/09/28 09:29:14;;;;;;;8.83;4.30;;;;;;;;;;5094623;28;20479;-77
2021/09/28 09:31:54;;;;;;;11.57;4.63;;;;;;;;;;5094882;28;20529;-77
2021/09/28 09:34:22;;;;;;;10.97;5.10;;;;;;;;;;5094445;28;20429;-76
2021/09/28 09:36:55;;;;;;;19.30;5.77;;;;;;;;;;5094840;28;20486;-76
2021/09/28 09:39:23;;;;;;;13.37;5.77;;;;;;;;;;5095236;28;20527;-77
2021/09/28 09:42:03;;;;;;;11.23;4.67;;;;;;;;;;5094878;28;20473;-76
2021/09/28 09:44:31;;;;;;;10.50;4.90;;;;;;;;;;5095029;28;20448;-76
2021/09/28 09:47:00;;;;;;;10.23;4.40;;;;;;;;;;5094724;28;20449;-77
2021/09/28 09:49:28;;;;;;;14.60;4.47;;;;;;;;;;5095073;28;20438;-78
2021/09/28 09:51:59;;;;;;;12.50;5.00;;;;;;;;;;5094660;28;20469;-78
2021/09/28 09:54:31;;;;;;;13.77;4.67;;;;;;;;;;5096500;28;20987;-78
2021/09/28 09:56:58;;;;;;;9.30;4.40;;;;;;;;;;5098565;28;20552;-77
2021/09/28 09:59:25;;;;;;;17.73;5.37;;;;;;;;;;5095088;28;20444;-77
2021/09/28 10:01:53;;;;;;;12.50;4.40;;;;;;;;;;5094221;28;20437;-77
2021/09/28 10:04:21;;;;;;;14.73;4.53;;;;;;;;;;5094139;28;20947;-78
2021/09/28 10:06:49;;;;;;;13.97;5.30;;;;;;;;;;5094379;28;20444;-78
2021/09/28 10:09:22;;;;;;;10.00;4.20;;;;;;;;;;5094019;28;20531;-77
2021/09/28 10:11:52;;;;;;;6.97;4.37;;;;;;;;;;5095225;28;20774;-76
2021/09/28 10:14:29;;;;;;;9.03;4.90;;;;;;;;;;5094200;28;20552;-78
2021/09/28 10:16:59;;;;;;;12.30;4.90;;;;;;;;;;5093777;28;21084;-78
2021/09/28 10:19:43;;;;;;;8.70;5.13;;;;;;;;;;5094090;28;20494;-77
2021/09/28 10:22:38;;;;;;;10.53;6.80;;;;;;;;;;5094305;28;20441;-79
2021/09/28 10:25:31;;;;;;;10.83;4.97;;;;;;;;;;5094355;28;20440;-78
2021/09/28 10:27:59;;;;;;;8.43;3.80;;;;;;;;;;5093613;28;20429;-76
2021/09/28 10:30:42;;;;;;;13.03;4.13;;;;;;;;;;5094748;28;20821;-77
2021/09/28 10:33:25;;;;;;;10.43;4.77;;;;;;;;;;5091636;28;20545;-77
2021/09/28 10:35:54;;;;;;;13.67;4.17;;;;;;;;;;5094207;28;20512;-77
2021/09/28 10:38:41;;;;;;;16.03;5.03;;;;;;;;;;5093409;28;20578;-78
2021/09/28 10:41:10;;;;;;;8.97;4.30;;;;;;;;;;5093919;28;20748;-78
2021/09/28 10:43:37;;;;;;;12.80;4.80;;;;;;;;;;5093936;28;20440;-77
2021/09/28 10:46:07;;;;;;;10.37;4.00;;;;;;;;;;5092547;28;20452;-77
2021/09/28 10:48:36;;;;;;;11.50;4.00;;;;;;;;;;5093429;28;20523;-77
2021/09/28 10:51:16;;;;;;;8.67;4.20;;;;;;;;;;5093654;28;20523;-77
2021/09/28 10:53:45;;;;;;;12.17;4.10;;;;;;;;;;5093227;28;20445;-77
2021/09/28 10:56:15;;;;;;;13.43;4.30;;;;;;;;;;5094075;28;20445;-76
2021/09/28 10:58:53;;;;;;;7.90;3.70;;;;;;;;;;5093234;28;20490;-77
2021/09/28 11:01:21;;;;;;;16.23;3.97;;;;;;;;;;5093965;28;20446;-78
2021/09/28 11:03:51;;;;;;;12.50;4.00;;;;;;;;;;5093034;28;20444;-76
2021/09/28 11:06:22;;;;;;;9.47;4.00;;;;;;;;;;5093781;28;20500;-73
2021/09/28 11:08:54;;;;;;;10.20;3.30;;;;;;;;;;5093615;28;20434;-78
2021/09/28 11:11:24;;;;;;;11.10;3.43;;;;;;;;;;5093779;28;20779;-77
2021/09/28 11:13:51;;;;;;;11.57;3.83;;;;;;;;;;5093261;28;20456;-77
2021/09/28 11:16:21;;;;;;;10.40;3.50;;;;;;;;;;5092960;28;20451;-77
2021/09/28 11:18:54;;;;;;;7.03;3.13;;;;;;;;;;5092999;28;20476;-77
2021/09/28 11:21:22;;;;;;;9.67;3.30;;;;;;;;;;5093130;28;20902;-77
2021/09/28 11:23:51;;;;;;;11.60;3.10;;;;;;;;;;5092818;28;20433;-77
2021/09/28 11:26:18;;;;;;;5.60;2.77;;;;;;;;;;5093046;28;20441;-77
2021/09/28 11:28:49;;;;;;;12.60;3.70;;;;;;;;;;5093037;28;20529;-78
2021/09/28 11:31:16;;;;;;;8.13;3.17;;;;;;;;;;5093354;28;20434;-77
2021/09/28 11:33:46;;;;;;;9.93;3.50;;;;;;;;;;5092733;28;20453;-77
2021/09/28 11:36:14;;;;;;;11.90;2.97;;;;;;;;;;5093983;28;20522;-78
2021/09/28 11:38:42;;;;;;;9.80;3.60;;;;;;;;;;5092732;28;20485;-77
2021/09/28 11:41:10;;;;;;;5.97;3.20;;;;;;;;;;5093092;28;20451;-78
2021/09/28 11:43:38;;;;;;;11.10;2.33;;;;;;;;;;5093041;28;20489;-77
2021/09/28 11:46:07;;;;;;;9.73;2.90;;;;;;;;;;5093097;28;20448;-76
2021/09/28 11:48:37;;;;;;;8.87;3.23;;;;;;;;;;5093509;28;20536;-77
2021/09/28 11:51:07;;;;;;;7.10;3.00;;;;;;;;;;5092865;28;20917;-78
2021/09/28 11:53:37;;;;;;;9.10;2.93;;;;;;;;;;5092688;28;20466;-77
2021/09/28 11:56:04;;;;;;;10.47;3.37;;;;;;;;;;5093347;28;20429;-78
2021/09/28 11:58:34;;;;;;;8.33;3.10;;;;;;;;;;5095584;28;20494;-78
2021/09/28 12:01:02;;;;;;;7.03;3.60;;;;;;;;;;5096818;28;20435;-78
2021/09/28 12:03:30;;;;;;;11.40;3.40;;;;;;;;;;5096768;28;20442;-77
2021/09/28 12:06:07;;;;;;;7.10;3.00;;;;;;;;;;5096335;28;20531;-78
2021/09/28 12:08:35;;;;;;;9.13;4.03;;;;;;;;;;5096733;28;20449;-77
2021/09/28 12:11:03;;;;;;;7.80;3.97;;;;;;;;;;5096878;28;20480;-76
2021/09/28 12:13:31;;;;;;;5.93;3.60;;;;;;;;;;5097494;28;20820;-77
2021/09/28 12:16:02;;;;;;;5.27;3.30;;;;;;;;;;5096431;28;20436;-77
2021/09/28 12:18:31;;;;;;;9.73;3.40;;;;;;;;;;5096681;28;20984;-78
2021/09/28 12:21:17;;;;;;;6.53;3.30;;;;;;;;;;5095964;28;20524;-78
2021/09/28 12:23:44;;;;;;;12.80;3.27;;;;;;;;;;5095936;28;20445;-78
2021/09/28 12:26:27;;;;;;;9.83;4.07;;;;;;;;;;5096697;28;20440;-78
2021/09/28 12:28:55;;;;;;;7.80;3.10;;;;;;;;;;5096460;28;20478;-78
2021/09/28 12:31:33;;;;;;;8.00;3.00;;;;;;;;;;5096136;28;20467;-77
2021/09/28 12:34:02;;;;;;;15.93;3.37;;;;;;;;;;5096011;28;20537;-77
2021/09/28 12:36:29;;;;;;;8.30;3.30;;;;;;;;;;5095745;28;20442;-77
2021/09/28 12:39:15;;;;;;;5.63;3.20;;;;;;;;;;5098143;28;20571;-78
2021/09/28 12:42:01;;;;;;;15.47;3.40;;;;;;;;;;5096468;28;20445;-77
2021/09/28 12:44:29;;;;;;;8.70;3.40;;;;;;;;;;5095873;28;20438;-78
2021/09/28 12:46:56;;;;;;;18.63;3.03;;;;;;;;;;5095735;28;20448;-71
2021/09/28 12:49:32;;;;;;;8.57;3.63;;;;;;;;;;5095742;28;20446;-73
2021/09/28 12:51:59;;;;;;;7.43;2.33;;;;;;;;;;5095533;28;20908;-73
2021/09/28 12:54:28;;;;;;;7.20;2.90;;;;;;;;;;5095313;28;20977;-73
2021/09/28 12:56:55;;;;;;;4.63;3.00;;;;;;;;;;5095724;28;20435;-73
2021/09/28 12:59:22;;;;;;;6.20;3.23;;;;;;;;;;5095188;28;20500;-73
2021/09/28 13:01:50;;;;;;;7.63;3.33;;;;;;;;;;5095213;28;20447;-74
2021/09/28 13:04:17;;;;;;;19.23;3.03;;;;;;;;;;5095598;28;20861;-74
2021/09/28 13:06:48;;;;;;;6.33;2.00;;;;;;;;;;5095499;28;20433;-73
2021/09/28 13:09:15;;;;;;;6.40;2.83;;;;;;;;;;5095071;28;20480;-73
2021/09/28 13:11:43;;;;;;;6.00;1.93;;;;;;;;;;5094704;28;20857;-74
2021/09/28 13:14:10;;;;;;;9.10;2.57;;;;;;;;;;5095150;28;20537;-74
2021/09/28 13:16:37;;;;;;;9.70;2.40;;;;;;;;;;5095136;28;20488;-74
2021/09/28 13:19:04;;;;;;;5.43;2.53;;;;;;;;;;5095382;28;20495;-74
2021/09/28 13:21:31;;;;;;;6.60;2.67;;;;;;;;;;5095092;28;20438;-74
2021/09/28 13:24:00;;;;;;;7.90;2.40;;;;;;;;;;5094731;28;20446;-74
2021/09/28 13:26:28;;;;;;;12.27;4.27;;;;;;;;;;5094893;28;20975;-74
2021/09/28 13:28:55;;;;;;;7.67;3.37;;;;;;;;;;5094705;28;20481;-74
2021/09/28 13:31:22;;;;;;;7.43;3.13;;;;;;;;;;5095021;28;20444;-74
2021/09/28 13:33:49;;;;;;;15.17;2.97;;;;;;;;;;5094786;28;20534;-75
2021/09/28 13:36:20;;;;;;;7.07;2.60;;;;;;;;;;5094517;28;20528;-73
2021/09/28 13:38:47;;;;;;;10.50;3.90;;;;;;;;;;5095082;28;20517;-74
2021/09/28 13:41:16;;;;;;;5.87;2.50;;;;;;;;;;5094662;28;20452;-75
2021/09/28 13:43:44;;;;;;;4.50;2.70;;;;;;;;;;5094178;28;20533;-74
2021/09/28 13:46:11;;;;;;;6.73;2.90;;;;;;;;;;5094522;28;20503;-74
2021/09/28 13:48:38;;;;;;;5.97;2.60;;;;;;;;;;5094794;28;20472;-75
2021/09/28 13:51:05;;;;;;;8.43;2.90;;;;;;;;;;5094526;28;20526;-77
2021/09/28 13:53:32;;;;;;;8.47;3.00;;;;;;;;;;5094262;28;20446;-76
2021/09/28 13:56:00;;;;;;;10.23;2.93;;;;;;;;;;5094457;28;20532;-74
2021/09/28 13:58:28;;;;;;;10.40;3.93;;;;;;;;;;5094638;28;20495;-74
2021/09/28 14:00:55;;;;;;;5.67;2.20;;;;;;;;;;5094143;28;20446;-75
2021/09/28 14:03:23;;;;;;;3.13;2.00;;;;;;;;;;5094466;28;20537;-74
2021/09/28 14:05:50;;;;;;;8.17;2.43;;;;;;;;;;5094038;28;20548;-74
2021/09/28 14:08:17;;;;;;;10.03;2.97;;;;;;;;;;5094034;28;20932;-74
2021/09/28 14:10:44;;;;;;;7.40;2.23;;;;;;;;;;5094380;28;20447;-74
2021/09/28 14:13:12;;;;;;;4.40;1.80;;;;;;;;;;5094216;28;20525;-74
2021/09/28 14:15:40;;;;;;;9.27;3.00;;;;;;;;;;5093883;28;20442;-74
2021/09/28 14:18:07;;;;;;;5.60;3.03;;;;;;;;;;5093767;28;20580;-75
2021/09/28 14:20:35;;;;;;;5.30;3.00;;;;;;;;;;5093678;28;20935;-75
2021/09/28 14:23:02;;;;;;;7.20;2.90;;;;;;;;;;5094099;28;20521;-74
2021/09/28 14:25:29;;;;;;;8.03;2.70;;;;;;;;;;5093878;28;20439;-75
2021/09/28 14:27:56;;;;;;;6.97;2.27;;;;;;;;;;5093869;28;20463;-75
2021/09/28 14:30:23;;;;;;;8.23;2.57;;;;;;;;;;5093840;28;20466;-76
2021/09/28 14:32:52;;;;;;;5.23;1.90;;;;;;;;;;5093712;28;20500;-75
2021/09/28 14:35:19;;;;;;;6.00;2.60;;;;;;;;;;5093733;28;20451;-74
2021/09/28 14:37:47;;;;;;;10.37;3.00;;;;;;;;;;5093504;28;20531;-75